createdAt,value
2023-03-03T00:00:33.844Z,100806.22
2023-03-03T00:03:05.558Z,100810.50
2023-03-03T00:05:36.352Z,100814.75
2023-03-03T00:08:05.963Z,100818.13
2023-03-03T00:10:34.457Z,100816.34
2023-03-03T00:13:03.341Z,100818.94
2023-03-03T00:15:32.726Z,100827.56
2023-03-03T00:18:01.689Z,100828.31
2023-03-03T00:20:36.838Z,100825.66
2023-03-03T00:23:21.687Z,100824.75
2023-03-03T00:25:52.534Z,100824.84
2023-03-03T00:28:25.604Z,100830.00
2023-03-03T00:30:55.885Z,100826.66
2023-03-03T00:33:29.468Z,100830.13
2023-03-03T00:36:08.099Z,100838.78
2023-03-03T00:38:37.659Z,100843.13
2023-03-03T00:41:17.441Z,100845.72
2023-03-03T00:43:45.871Z,100832.81
2023-03-03T00:46:18.812Z,100837.22
2023-03-03T00:48:48.659Z,100841.78
2023-03-03T00:51:30.042Z,100838.31
2023-03-03T00:53:59.860Z,100849.53
2023-03-03T00:56:31.607Z,100847.75
2023-03-03T00:59:00.893Z,100851.13
2023-03-03T01:01:30.795Z,100849.31
2023-03-03T01:03:59.267Z,100850.88
2023-03-03T01:06:29.259Z,100849.09
2023-03-03T01:08:57.857Z,100851.56
2023-03-03T01:11:28.609Z,100862.69
2023-03-03T01:13:57.814Z,100855.63
2023-03-03T01:16:28.717Z,100852.91
2023-03-03T01:18:57.205Z,100856.28
2023-03-03T01:21:25.605Z,100863.16
2023-03-03T01:23:55.827Z,100860.56
2023-03-03T01:26:24.256Z,100856.97
2023-03-03T01:28:52.946Z,100850.00
2023-03-03T01:31:22.175Z,100854.25
2023-03-03T01:33:50.682Z,100850.91
2023-03-03T01:36:24.592Z,100851.81
2023-03-03T01:38:54.837Z,100851.81
2023-03-03T01:41:23.376Z,100861.34
2023-03-03T01:43:52.356Z,100864.72
2023-03-03T01:46:49.552Z,100863.91
2023-03-03T01:49:21.792Z,100865.72
2023-03-03T01:51:53.659Z,100861.34
2023-03-03T01:54:29.730Z,100864.84
2023-03-03T01:57:02.628Z,100860.56
2023-03-03T01:59:35.572Z,100854.50
2023-03-03T02:02:07.214Z,100867.50
2023-03-03T02:04:36.506Z,100858.06
2023-03-03T02:07:10.998Z,100859.00
2023-03-03T02:09:50.834Z,100862.56
2023-03-03T02:12:21.908Z,100856.72
2023-03-03T02:14:50.850Z,100857.75
2023-03-03T02:17:19.979Z,100862.13
2023-03-03T02:19:55.687Z,100857.88
2023-03-03T02:22:32.383Z,100859.66
2023-03-03T02:25:07.263Z,100859.66
2023-03-03T02:27:37.989Z,100861.47
2023-03-03T02:30:12.630Z,100865.69
2023-03-03T02:32:41.922Z,100867.41
2023-03-03T02:35:32.635Z,100858.75
2023-03-03T02:38:10.921Z,100852.69
2023-03-03T02:40:44.221Z,100857.88
2023-03-03T02:43:15.878Z,100856.28
2023-03-03T02:45:45.450Z,100850.34
2023-03-03T02:48:13.939Z,100847.75
2023-03-03T02:50:42.489Z,100859.88
2023-03-03T02:53:10.994Z,100862.56
2023-03-03T02:55:40.535Z,100866.84
2023-03-03T02:58:09.040Z,100873.78
2023-03-03T03:00:39.148Z,100878.94
2023-03-03T03:03:07.658Z,100876.28
2023-03-03T03:05:40.074Z,100883.09
2023-03-03T03:08:08.590Z,100881.19
2023-03-03T03:10:37.824Z,100885.47
2023-03-03T03:13:07.549Z,100890.63
2023-03-03T03:15:36.550Z,100897.47
2023-03-03T03:18:07.762Z,100881.19
2023-03-03T03:20:40.028Z,100886.47
2023-03-03T03:23:08.856Z,100885.47
2023-03-03T03:25:42.736Z,100878.53
2023-03-03T03:28:11.320Z,100881.88
2023-03-03T03:30:40.766Z,100894.78
2023-03-03T03:33:11.438Z,100890.53
2023-03-03T03:35:45.522Z,100901.63
2023-03-03T03:38:15.902Z,100891.31
2023-03-03T03:40:44.905Z,100889.53
2023-03-03T03:43:13.490Z,100886.94
2023-03-03T03:45:43.936Z,100894.56
2023-03-03T03:48:15.806Z,100902.31
2023-03-03T03:50:46.394Z,100903.19
2023-03-03T03:53:14.885Z,100904.00
2023-03-03T03:55:43.343Z,100893.53
2023-03-03T03:58:14.506Z,100890.88
2023-03-03T04:00:43.775Z,100892.44
2023-03-03T04:03:15.417Z,100893.22
2023-03-03T04:05:45.728Z,100893.09
2023-03-03T04:08:14.717Z,100891.19
2023-03-03T04:10:44.445Z,100890.31
2023-03-03T04:13:13.714Z,100891.97
2023-03-03T04:15:43.125Z,100903.88
2023-03-03T04:18:13.581Z,100909.94
2023-03-03T04:20:43.283Z,100909.94
2023-03-03T04:23:12.853Z,100912.53
2023-03-03T04:25:41.374Z,100921.03
2023-03-03T04:28:15.714Z,100915.66
2023-03-03T04:30:45.167Z,100907.91
2023-03-03T04:33:17.417Z,100902.66
2023-03-03T04:35:46.715Z,100900.84
2023-03-03T04:38:15.306Z,100901.63
2023-03-03T04:40:44.773Z,100898.91
2023-03-03T04:43:16.170Z,100899.81
2023-03-03T04:45:45.341Z,100906.66
2023-03-03T04:48:13.975Z,100906.66
2023-03-03T04:50:44.436Z,100908.47
2023-03-03T04:53:12.893Z,100902.31
2023-03-03T04:55:43.153Z,100905.66
2023-03-03T04:58:11.700Z,100908.13
2023-03-03T05:00:41.324Z,100920.91
2023-03-03T05:03:13.826Z,100910.38
2023-03-03T05:05:45.385Z,100907.56
2023-03-03T05:08:14.007Z,100913.50
2023-03-03T05:10:42.494Z,100922.03
2023-03-03T05:13:11.035Z,100921.22
2023-03-03T05:15:41.649Z,100918.56
2023-03-03T05:18:11.649Z,100910.16
2023-03-03T05:20:42.030Z,100916.19
2023-03-03T05:23:11.839Z,100912.81
2023-03-03T05:25:41.591Z,100908.53
2023-03-03T05:28:10.161Z,100904.97
2023-03-03T05:30:42.198Z,100908.31
2023-03-03T05:33:14.681Z,100915.03
2023-03-03T05:35:43.582Z,100914.16
2023-03-03T05:38:13.503Z,100917.41
2023-03-03T05:40:41.985Z,100918.19
2023-03-03T05:43:10.414Z,100918.19
2023-03-03T05:45:38.865Z,100920.66
2023-03-03T05:48:07.548Z,100931.63
2023-03-03T05:50:35.999Z,100921.31
2023-03-03T05:53:04.874Z,100925.47
2023-03-03T05:55:34.785Z,100919.28
2023-03-03T05:58:03.155Z,100917.50
2023-03-03T06:00:31.616Z,100924.22
2023-03-03T06:03:00.165Z,100920.63
2023-03-03T06:05:28.664Z,100931.84
2023-03-03T06:07:57.062Z,100940.34
2023-03-03T06:10:25.646Z,100948.00
2023-03-03T06:12:59.026Z,100947.75
2023-03-03T06:15:27.656Z,100956.28
2023-03-03T06:17:56.197Z,100960.53
2023-03-03T06:20:24.633Z,100959.66
2023-03-03T06:22:53.118Z,100959.66
2023-03-03T06:25:21.576Z,100960.41
2023-03-03T06:27:50.175Z,100963.88
2023-03-03T06:30:20.307Z,100973.31
2023-03-03T06:32:48.810Z,100969.97
2023-03-03T06:35:18.360Z,100976.91
2023-03-03T06:37:46.954Z,100979.47
2023-03-03T06:40:15.648Z,100991.59
2023-03-03T06:42:44.130Z,100991.59
2023-03-03T06:45:13.378Z,100989.00
2023-03-03T06:47:43.192Z,100995.97
2023-03-03T06:50:13.131Z,101001.16
2023-03-03T06:52:41.639Z,100994.28
2023-03-03T06:55:17.402Z,100995.97
2023-03-03T06:57:45.839Z,100990.81
2023-03-03T07:00:20.137Z,100995.19
2023-03-03T07:02:58.799Z,100999.44
2023-03-03T07:05:29.887Z,100992.59
2023-03-03T07:07:58.657Z,101004.75
2023-03-03T07:10:29.422Z,101009.09
2023-03-03T07:13:03.241Z,101011.81
2023-03-03T07:15:35.589Z,101009.25
2023-03-03T07:18:18.410Z,101004.19
2023-03-03T07:20:46.887Z,101006.00
2023-03-03T07:23:22.559Z,100998.25
2023-03-03T07:25:52.554Z,101008.56
2023-03-03T07:28:25.170Z,101017.06
2023-03-03T07:30:54.156Z,101010.22
2023-03-03T07:33:28.064Z,101015.28
2023-03-03T07:35:58.213Z,101025.59
2023-03-03T07:38:32.477Z,101028.94
2023-03-03T07:41:04.251Z,101029.09
2023-03-03T07:43:37.359Z,101025.59
2023-03-03T07:46:27.830Z,101032.56
2023-03-03T07:48:58.696Z,101039.53
2023-03-03T07:51:29.409Z,101035.38
2023-03-03T07:54:22.448Z,101043.38
2023-03-03T07:56:50.929Z,101045.38
2023-03-03T07:59:23.247Z,101043.81
2023-03-03T08:01:55.321Z,101050.91
2023-03-03T08:04:30.886Z,101048.56
2023-03-03T08:07:01.380Z,101053.06
2023-03-03T08:09:48.495Z,101055.75
2023-03-03T08:12:29.906Z,101057.16
2023-03-03T08:15:09.056Z,101062.66
2023-03-03T08:17:40.046Z,101073.44
2023-03-03T08:20:45.664Z,101076.38
2023-03-03T08:23:15.893Z,101073.28
2023-03-03T08:25:45.334Z,101072.69
2023-03-03T08:28:14.034Z,101076.31
2023-03-03T08:30:43.874Z,101076.53
2023-03-03T08:33:12.593Z,101078.34
2023-03-03T08:35:43.012Z,101078.56
2023-03-03T08:38:14.664Z,101082.19
2023-03-03T08:40:43.431Z,101089.13
2023-03-03T08:43:14.505Z,101084.84
2023-03-03T08:45:42.855Z,101087.34
2023-03-03T08:48:11.243Z,101093.94
2023-03-03T08:50:40.414Z,101098.88
2023-03-03T08:53:11.136Z,101090.09
2023-03-03T08:55:39.536Z,101101.31
2023-03-03T08:58:07.905Z,101096.06
2023-03-03T09:00:36.466Z,101102.13
2023-03-03T09:03:07.074Z,101102.13
2023-03-03T09:05:37.971Z,101107.28
2023-03-03T09:08:08.102Z,101105.59
2023-03-03T09:10:37.925Z,101098.75
2023-03-03T09:13:12.377Z,101104.03
2023-03-03T09:15:40.840Z,101109.34
2023-03-03T09:18:17.219Z,101115.50
2023-03-03T09:20:48.886Z,101116.50
2023-03-03T09:23:39.183Z,101120.13
2023-03-03T09:26:28.506Z,101128.09
2023-03-03T09:29:02.285Z,101120.34
2023-03-03T09:31:39.051Z,101124.75
2023-03-03T09:34:20.594Z,101117.09
2023-03-03T09:36:49.502Z,101130.00
2023-03-03T09:39:20.203Z,101133.53
2023-03-03T09:42:10.828Z,101139.66
2023-03-03T09:45:00.632Z,101132.19
2023-03-03T09:47:41.653Z,101126.22
2023-03-03T09:50:21.845Z,101129.03
2023-03-03T09:52:58.319Z,101132.63
2023-03-03T09:55:41.150Z,101133.00
2023-03-03T09:58:32.991Z,101134.09
2023-03-03T10:01:16.511Z,101142.13
2023-03-03T10:04:10.411Z,101146.72
2023-03-03T10:06:42.604Z,101140.88
2023-03-03T10:09:34.798Z,101131.56
2023-03-03T10:12:08.865Z,101143.03
2023-03-03T10:14:59.423Z,101139.88
2023-03-03T10:17:41.924Z,101139.34
2023-03-03T10:20:54.296Z,101141.34
2023-03-03T10:23:36.026Z,101142.38
2023-03-03T10:26:18.145Z,101133.94
2023-03-03T10:29:11.985Z,101145.44
2023-03-03T10:31:52.465Z,101138.03
2023-03-03T10:34:35.094Z,101136.56
2023-03-03T10:37:14.518Z,101137.78
2023-03-03T10:39:59.377Z,101139.03
2023-03-03T10:42:39.772Z,101145.34
2023-03-03T10:45:36.338Z,101150.81
2023-03-03T10:48:28.969Z,101148.50
2023-03-03T10:51:09.823Z,101153.75
2023-03-03T10:53:46.204Z,101150.50
2023-03-03T10:56:28.769Z,101146.34
2023-03-03T10:59:10.827Z,101154.44
2023-03-03T11:01:50.058Z,101143.41
2023-03-03T11:04:33.034Z,101147.78
2023-03-03T11:07:08.050Z,101153.09
2023-03-03T11:09:54.811Z,101152.19
2023-03-03T11:12:34.805Z,101146.13
2023-03-03T11:15:24.001Z,101154.66
2023-03-03T11:18:08.857Z,101151.19
2023-03-03T11:20:44.057Z,101147.91
2023-03-03T11:23:30.774Z,101159.38
2023-03-03T11:26:09.317Z,101151.06
2023-03-03T11:28:56.173Z,101141.94
2023-03-03T11:31:32.160Z,101141.47
2023-03-03T11:34:08.086Z,101138.22
2023-03-03T11:36:43.644Z,101138.44
2023-03-03T11:39:15.304Z,101131.00
2023-03-03T11:41:54.520Z,101126.75
2023-03-03T11:44:26.551Z,101127.50
2023-03-03T11:46:59.636Z,101125.81
2023-03-03T11:49:35.059Z,101133.69
2023-03-03T11:52:20.986Z,101124.16
2023-03-03T11:54:53.541Z,101127.63
2023-03-03T11:57:29.025Z,101124.38
2023-03-03T12:00:17.309Z,101125.59
2023-03-03T12:02:59.709Z,101121.31
2023-03-03T12:05:47.622Z,101118.84
2023-03-03T12:08:30.492Z,101117.00
2023-03-03T12:11:04.054Z,101118.84
2023-03-03T12:13:48.478Z,101113.88
2023-03-03T12:16:26.808Z,101112.50
2023-03-03T12:19:08.011Z,101111.81
2023-03-03T12:21:52.305Z,101119.91
2023-03-03T12:24:35.257Z,101104.38
2023-03-03T12:27:15.264Z,101105.94
2023-03-03T12:29:52.603Z,101103.25
2023-03-03T12:32:35.202Z,101094.59
2023-03-03T12:35:10.469Z,101095.59
2023-03-03T12:37:52.403Z,101104.38
2023-03-03T12:40:25.917Z,101100.22
2023-03-03T12:43:06.830Z,101098.50
2023-03-03T12:45:50.247Z,101099.59
2023-03-03T12:48:22.486Z,101098.03
2023-03-03T12:51:00.801Z,101097.13
2023-03-03T12:53:41.467Z,101097.03
2023-03-03T12:56:17.555Z,101097.81
2023-03-03T12:58:55.676Z,101098.03
2023-03-03T13:01:36.003Z,101096.44
2023-03-03T13:04:10.787Z,101097.47
2023-03-03T13:06:48.780Z,101096.09
2023-03-03T13:09:32.942Z,101096.81
2023-03-03T13:12:16.138Z,101091.47
2023-03-03T13:14:50.509Z,101092.91
2023-03-03T13:17:24.371Z,101096.59
2023-03-03T13:19:59.981Z,101095.78
2023-03-03T13:22:42.888Z,101093.50
2023-03-03T13:25:28.779Z,101092.81
2023-03-03T13:28:03.739Z,101095.53
2023-03-03T13:30:35.852Z,101099.91
2023-03-03T13:33:12.516Z,101098.25
2023-03-03T13:35:45.578Z,101098.53
2023-03-03T13:38:15.605Z,101088.47
2023-03-03T13:40:47.263Z,101087.28
2023-03-03T13:43:20.671Z,101089.47
2023-03-03T13:45:59.629Z,101080.22
2023-03-03T13:48:45.626Z,101081.31
2023-03-03T13:51:24.493Z,101084.91
2023-03-03T13:54:01.045Z,101079.72
2023-03-03T13:56:42.200Z,101075.94
2023-03-03T13:59:22.247Z,101072.97
2023-03-03T14:01:59.142Z,101064.13
2023-03-03T14:04:36.677Z,101069.88
2023-03-03T14:07:14.306Z,101072.81
2023-03-03T14:09:58.086Z,101070.75
2023-03-03T14:12:39.254Z,101067.66
2023-03-03T14:15:20.691Z,101065.31
2023-03-03T14:18:01.302Z,101060.28
2023-03-03T14:20:32.417Z,101054.19
2023-03-03T14:23:03.721Z,101047.25
2023-03-03T14:25:52.669Z,101053.66
2023-03-03T14:28:23.272Z,101051.91
2023-03-03T14:30:55.951Z,101049.09
2023-03-03T14:33:30.915Z,101044.84
2023-03-03T14:36:06.055Z,101043.63
2023-03-03T14:38:46.671Z,101039.63
2023-03-03T14:41:19.232Z,101040.13
2023-03-03T14:43:57.646Z,101035.56
2023-03-03T14:46:36.054Z,101021.47
2023-03-03T14:49:06.919Z,101016.97
2023-03-03T14:51:42.583Z,101021.84
2023-03-03T14:54:22.119Z,101021.41
2023-03-03T14:57:08.132Z,101020.66
2023-03-03T14:59:36.606Z,101008.59
2023-03-03T15:02:29.961Z,101011.63
2023-03-03T15:05:22.969Z,101008.28
2023-03-03T15:07:54.608Z,101008.84
2023-03-03T15:10:36.046Z,101007.50
2023-03-03T15:13:30.180Z,101005.34
2023-03-03T15:16:11.380Z,101008.75
2023-03-03T15:19:22.347Z,101002.34
2023-03-03T15:22:00.429Z,101004.63
2023-03-03T15:24:38.770Z,101001.69
2023-03-03T15:27:14.505Z,100998.00
2023-03-03T15:29:50.978Z,100990.44
2023-03-03T15:32:30.838Z,100988.88
2023-03-03T15:35:11.174Z,100984.19
2023-03-03T15:37:47.101Z,100980.25
2023-03-03T15:40:25.994Z,100979.28
2023-03-03T15:43:03.070Z,100980.13
2023-03-03T15:45:34.913Z,100983.56
2023-03-03T15:48:21.796Z,100979.00
2023-03-03T15:50:56.828Z,100981.50
2023-03-03T15:53:40.993Z,100977.59
2023-03-03T15:56:19.077Z,100985.25
2023-03-03T15:59:25.328Z,100983.22
2023-03-03T16:02:03.575Z,100979.28
2023-03-03T16:04:36.080Z,100982.50
2023-03-03T16:07:14.654Z,100980.34
2023-03-03T16:09:56.678Z,100979.97
2023-03-03T16:12:35.284Z,100979.59
2023-03-03T16:15:23.056Z,100977.28
2023-03-03T16:17:59.579Z,100971.47
2023-03-03T16:20:36.133Z,100973.41
2023-03-03T16:23:32.239Z,100982.34
2023-03-03T16:26:11.360Z,100984.22
2023-03-03T16:28:51.642Z,100987.19
2023-03-03T16:31:24.009Z,100986.53
2023-03-03T16:34:02.773Z,100991.28
2023-03-03T16:36:39.457Z,100991.59
2023-03-03T16:39:14.016Z,100994.50
2023-03-03T16:41:52.317Z,100991.44
2023-03-03T16:44:32.990Z,101002.34
2023-03-03T16:47:14.888Z,100995.63
2023-03-03T16:49:55.217Z,100996.03
2023-03-03T16:52:43.775Z,101004.31
2023-03-03T16:55:19.192Z,100996.06
2023-03-03T16:58:03.067Z,100998.97
2023-03-03T17:00:38.958Z,101004.53
2023-03-03T17:03:35.754Z,101007.53
2023-03-03T17:06:12.091Z,101009.59
2023-03-03T17:09:04.672Z,101013.47
2023-03-03T17:11:44.564Z,101013.75
2023-03-03T17:14:33.296Z,101017.50
2023-03-03T17:17:06.171Z,101019.44
2023-03-03T17:19:50.854Z,101022.31
2023-03-03T17:22:28.412Z,101021.78
2023-03-03T17:25:06.550Z,101027.22
2023-03-03T17:27:52.541Z,101019.63
2023-03-03T17:30:29.142Z,101020.59
2023-03-03T17:33:16.646Z,101026.13
2023-03-03T17:35:58.359Z,101033.16
2023-03-03T17:38:39.307Z,101042.94
2023-03-03T17:41:12.500Z,101042.19
2023-03-03T17:43:48.909Z,101048.47
2023-03-03T17:46:27.328Z,101050.31
2023-03-03T17:49:27.698Z,101053.00
2023-03-03T17:52:25.017Z,101052.41
2023-03-03T17:55:24.041Z,101069.03
2023-03-03T17:58:09.576Z,101068.34
2023-03-03T18:00:53.032Z,101062.47
2023-03-03T18:03:36.910Z,101064.53
2023-03-03T18:06:21.321Z,101070.09
2023-03-03T18:09:13.706Z,101066.31
2023-03-03T18:11:57.617Z,101066.88
2023-03-03T18:14:56.009Z,101066.44
2023-03-03T18:17:47.604Z,101065.03
2023-03-03T18:20:31.453Z,101061.63
2023-03-03T18:23:43.071Z,101068.97
2023-03-03T18:26:35.081Z,101068.34
2023-03-03T18:29:26.274Z,101069.28
2023-03-03T18:32:19.641Z,101072.03
2023-03-03T18:34:48.396Z,101079.34
2023-03-03T18:37:41.808Z,101078.81
2023-03-03T18:40:33.290Z,101086.03
2023-03-03T18:43:40.969Z,101079.41
2023-03-03T18:46:12.452Z,101083.91
2023-03-03T18:48:51.065Z,101079.97
2023-03-03T18:51:53.344Z,101081.13
2023-03-03T18:54:30.941Z,101088.53
2023-03-03T18:57:16.013Z,101091.47
2023-03-03T18:59:54.835Z,101086.53
2023-03-03T19:02:35.854Z,101096.41
2023-03-03T19:05:20.199Z,101091.69
2023-03-03T19:07:58.412Z,101097.66
2023-03-03T19:10:55.510Z,101089.66
2023-03-03T19:13:46.989Z,101101.59
2023-03-03T19:16:37.799Z,101095.41
2023-03-03T19:19:12.202Z,101098.00
2023-03-03T19:21:42.799Z,101107.31
2023-03-03T19:24:28.511Z,101107.31
2023-03-03T19:27:30.433Z,101108.13
2023-03-03T19:30:20.896Z,101105.53
2023-03-03T19:33:19.424Z,101101.25
2023-03-03T19:36:03.166Z,101104.72
2023-03-03T19:38:40.495Z,101109.09
2023-03-03T19:41:21.806Z,101104.06
2023-03-03T19:44:03.140Z,101099.78
2023-03-03T19:46:49.900Z,101098.22
2023-03-03T19:49:28.860Z,101096.66
2023-03-03T19:52:06.477Z,101102.84
2023-03-03T19:54:54.628Z,101091.81
2023-03-03T19:57:43.115Z,101097.97
2023-03-03T20:00:21.117Z,101097.34
2023-03-03T20:03:07.153Z,101089.69
2023-03-03T20:05:43.910Z,101098.44
2023-03-03T20:08:19.623Z,101092.47
2023-03-03T20:10:55.133Z,101096.22
2023-03-03T20:13:37.325Z,101095.41
2023-03-03T20:16:20.581Z,101091.25
2023-03-03T20:19:08.243Z,101093.03
2023-03-03T20:21:42.960Z,101101.03
2023-03-03T20:24:40.734Z,101100.25
2023-03-03T20:27:18.808Z,101098.69
2023-03-03T20:30:08.922Z,101097.09
2023-03-03T20:32:49.699Z,101092.16
2023-03-03T20:35:30.843Z,101101.81
2023-03-03T20:38:10.666Z,101098.56
2023-03-03T20:40:45.219Z,101098.56
2023-03-03T20:43:29.468Z,101106.53
2023-03-03T20:46:09.640Z,101102.25
2023-03-03T20:48:59.658Z,101104.97
2023-03-03T20:51:39.680Z,101105.09
2023-03-03T20:54:15.536Z,101111.25
2023-03-03T20:56:51.159Z,101109.66
2023-03-03T20:59:28.356Z,101102.03
2023-03-03T21:02:07.270Z,101110.81
2023-03-03T21:04:36.383Z,101110.81
2023-03-03T21:07:07.120Z,101116.06
2023-03-03T21:09:38.806Z,101111.03
2023-03-03T21:12:26.382Z,101113.72
2023-03-03T21:15:01.081Z,101118.91
2023-03-03T21:17:31.972Z,101107.63
2023-03-03T21:20:21.220Z,101108.66
2023-03-03T21:22:51.331Z,101103.59
2023-03-03T21:25:49.493Z,101098.63
2023-03-03T21:28:23.880Z,101099.53
2023-03-03T21:31:08.814Z,101106.53
2023-03-03T21:33:45.237Z,101109.09
2023-03-03T21:36:16.132Z,101108.31
2023-03-03T21:38:51.522Z,101115.25
2023-03-03T21:41:21.430Z,101111.78
2023-03-03T21:43:51.857Z,101108.31
2023-03-03T21:46:21.897Z,101111.69
2023-03-03T21:48:50.740Z,101114.38
2023-03-03T21:51:20.582Z,101110.22
2023-03-03T21:53:50.508Z,101108.50
2023-03-03T21:56:18.955Z,101106.84
2023-03-03T21:58:47.440Z,101101.75
2023-03-03T22:01:16.023Z,101109.53
2023-03-03T22:03:45.933Z,101099.31
2023-03-03T22:06:14.504Z,101104.56
2023-03-03T22:08:43.057Z,101096.94
2023-03-03T22:11:15.474Z,101099.50
2023-03-03T22:13:44.134Z,101102.09
2023-03-03T22:16:13.106Z,101100.41
2023-03-03T22:18:41.778Z,101102.22
2023-03-03T22:21:10.321Z,101097.94
2023-03-03T22:23:38.834Z,101095.44
2023-03-03T22:26:07.408Z,101105.78
2023-03-03T22:28:37.510Z,101103.19
2023-03-03T22:31:07.222Z,101105.78
2023-03-03T22:33:38.289Z,101102.44
2023-03-03T22:36:08.304Z,101109.41
2023-03-03T22:38:38.992Z,101101.63
2023-03-03T22:41:08.428Z,101102.63
2023-03-03T22:43:38.627Z,101100.94
2023-03-03T22:46:07.433Z,101102.63
2023-03-03T22:48:39.662Z,101101.84
2023-03-03T22:51:08.263Z,101104.44
2023-03-03T22:53:36.849Z,101100.19
2023-03-03T22:56:05.772Z,101100.06
2023-03-03T22:58:34.313Z,101102.63
2023-03-03T23:01:05.126Z,101111.28
2023-03-03T23:03:33.766Z,101103.53
2023-03-03T23:06:02.302Z,101102.75
2023-03-03T23:08:31.163Z,101099.25
2023-03-03T23:10:59.802Z,101101.06
2023-03-03T23:13:28.322Z,101107.13
2023-03-03T23:16:00.022Z,101108.03
2023-03-03T23:18:30.589Z,101111.41
2023-03-03T23:20:59.157Z,101113.19
2023-03-03T23:23:27.728Z,101115.03
2023-03-03T23:25:56.826Z,101109.84
2023-03-03T23:28:25.320Z,101109.84
2023-03-03T23:30:53.925Z,101105.56
2023-03-03T23:33:24.954Z,101101.28
2023-03-03T23:35:55.120Z,101101.28
2023-03-03T23:38:23.816Z,101094.53
2023-03-03T23:40:52.274Z,101107.59
2023-03-03T23:43:20.825Z,101106.66
2023-03-03T23:45:49.392Z,101099.81
2023-03-03T23:48:18.035Z,101106.66
2023-03-03T23:50:46.526Z,101105.88
2023-03-03T23:53:16.414Z,101103.31
2023-03-03T23:55:45.609Z,101103.31
2023-03-03T23:58:14.171Z,101100.72
